sensor_id;sensor_type;location;lat;lon;timestamp;P1;durP1;ratioP1;P2;durP2;ratioP2
18286;SDS011;9269;50.838;12.094;2024-02-14T00:01:40;4.73;;;3.83;;
18286;SDS011;9269;50.838;12.094;2024-02-14T00:04:12;5.53;;;3.70;;
18286;SDS011;9269;50.838;12.094;2024-02-14T00:06:41;5.43;;;4.30;;
18286;SDS011;9269;50.838;12.094;2024-02-14T00:09:12;5.13;;;3.70;;
18286;SDS011;9269;50.838;12.094;2024-02-14T00:14:23;4.60;;;4.20;;
18286;SDS011;9269;50.838;12.094;2024-02-14T00:16:53;5.47;;;3.70;;
18286;SDS011;9269;50.838;12.094;2024-02-14T00:23:22;5.87;;;3.93;;
18286;SDS011;9269;50.838;12.094;2024-02-14T00:25:50;6.00;;;3.80;;
18286;SDS011;9269;50.838;12.094;2024-02-14T00:28:19;3.70;;;3.17;;
18286;SDS011;9269;50.838;12.094;2024-02-14T00:30:52;4.33;;;3.77;;
18286;SDS011;9269;50.838;12.094;2024-02-14T00:33:21;4.13;;;3.50;;
18286;SDS011;9269;50.838;12.094;2024-02-14T00:35:50;5.77;;;3.50;;
18286;SDS011;9269;50.838;12.094;2024-02-14T00:38:19;5.93;;;3.50;;
18286;SDS011;9269;50.838;12.094;2024-02-14T00:40:51;4.73;;;3.50;;
18286;SDS011;9269;50.838;12.094;2024-02-14T00:43:20;3.90;;;3.43;;
18286;SDS011;9269;50.838;12.094;2024-02-14T00:45:49;3.97;;;3.57;;
18286;SDS011;9269;50.838;12.094;2024-02-14T00:48:20;4.97;;;3.47;;
18286;SDS011;9269;50.838;12.094;2024-02-14T00:50:49;4.20;;;3.53;;
18286;SDS011;9269;50.838;12.094;2024-02-14T00:53:19;4.50;;;3.40;;
18286;SDS011;9269;50.838;12.094;2024-02-14T00:55:47;4.27;;;3.47;;
18286;SDS011;9269;50.838;12.094;2024-02-14T00:58:17;5.67;;;3.77;;
18286;SDS011;9269;50.838;12.094;2024-02-14T01:00:45;6.17;;;4.00;;
18286;SDS011;9269;50.838;12.094;2024-02-14T01:03:14;4.63;;;3.87;;
18286;SDS011;9269;50.838;12.094;2024-02-14T01:05:46;4.27;;;3.40;;
18286;SDS011;9269;50.838;12.094;2024-02-14T01:08:16;5.10;;;4.53;;
18286;SDS011;9269;50.838;12.094;2024-02-14T01:10:44;6.13;;;3.57;;
18286;SDS011;9269;50.838;12.094;2024-02-14T01:13:15;5.20;;;3.47;;
18286;SDS011;9269;50.838;12.094;2024-02-14T01:15:45;8.23;;;3.40;;
18286;SDS011;9269;50.838;12.094;2024-02-14T01:18:14;4.60;;;3.70;;
18286;SDS011;9269;50.838;12.094;2024-02-14T01:20:45;3.70;;;3.30;;
18286;SDS011;9269;50.838;12.094;2024-02-14T01:23:14;3.73;;;3.10;;
18286;SDS011;9269;50.838;12.094;2024-02-14T01:25:43;4.77;;;2.97;;
18286;SDS011;9269;50.838;12.094;2024-02-14T01:28:12;3.60;;;3.20;;
18286;SDS011;9269;50.838;12.094;2024-02-14T01:30:41;4.23;;;3.10;;
18286;SDS011;9269;50.838;12.094;2024-02-14T01:33:10;2.90;;;2.60;;
18286;SDS011;9269;50.838;12.094;2024-02-14T01:35:40;5.47;;;3.07;;
18286;SDS011;9269;50.838;12.094;2024-02-14T01:38:11;5.87;;;3.77;;
18286;SDS011;9269;50.838;12.094;2024-02-14T01:40:42;3.80;;;3.40;;
18286;SDS011;9269;50.838;12.094;2024-02-14T01:43:12;4.23;;;2.90;;
18286;SDS011;9269;50.838;12.094;2024-02-14T01:45:43;3.43;;;3.00;;
18286;SDS011;9269;50.838;12.094;2024-02-14T01:48:12;3.20;;;2.90;;
18286;SDS011;9269;50.838;12.094;2024-02-14T01:50:46;4.07;;;3.13;;
18286;SDS011;9269;50.838;12.094;2024-02-14T01:53:18;4.47;;;3.27;;
18286;SDS011;9269;50.838;12.094;2024-02-14T01:55:48;3.40;;;2.90;;
18286;SDS011;9269;50.838;12.094;2024-02-14T01:58:17;4.03;;;3.20;;
18286;SDS011;9269;50.838;12.094;2024-02-14T02:00:47;3.87;;;3.13;;
18286;SDS011;9269;50.838;12.094;2024-02-14T02:03:16;4.93;;;3.07;;
18286;SDS011;9269;50.838;12.094;2024-02-14T02:05:46;3.73;;;2.93;;
18286;SDS011;9269;50.838;12.094;2024-02-14T02:08:17;4.47;;;2.90;;
18286;SDS011;9269;50.838;12.094;2024-02-14T02:10:47;3.90;;;2.80;;
18286;SDS011;9269;50.838;12.094;2024-02-14T02:13:17;4.00;;;2.73;;
18286;SDS011;9269;50.838;12.094;2024-02-14T02:15:47;3.87;;;2.77;;
18286;SDS011;9269;50.838;12.094;2024-02-14T02:18:17;3.40;;;2.97;;
18286;SDS011;9269;50.838;12.094;2024-02-14T02:20:46;4.53;;;2.50;;
18286;SDS011;9269;50.838;12.094;2024-02-14T02:23:19;3.00;;;2.67;;
18286;SDS011;9269;50.838;12.094;2024-02-14T02:25:49;4.57;;;2.73;;
18286;SDS011;9269;50.838;12.094;2024-02-14T02:28:18;3.17;;;2.87;;
18286;SDS011;9269;50.838;12.094;2024-02-14T02:30:47;4.83;;;2.80;;
18286;SDS011;9269;50.838;12.094;2024-02-14T02:33:17;3.30;;;2.70;;
18286;SDS011;9269;50.838;12.094;2024-02-14T02:35:48;4.50;;;2.90;;
18286;SDS011;9269;50.838;12.094;2024-02-14T02:38:19;2.57;;;2.23;;
18286;SDS011;9269;50.838;12.094;2024-02-14T02:40:49;5.37;;;2.57;;
18286;SDS011;9269;50.838;12.094;2024-02-14T02:43:19;2.87;;;2.63;;
18286;SDS011;9269;50.838;12.094;2024-02-14T02:45:49;2.77;;;2.43;;
18286;SDS011;9269;50.838;12.094;2024-02-14T02:48:18;2.93;;;2.70;;
18286;SDS011;9269;50.838;12.094;2024-02-14T02:50:50;4.50;;;2.97;;
18286;SDS011;9269;50.838;12.094;2024-02-14T02:53:21;3.00;;;2.43;;
18286;SDS011;9269;50.838;12.094;2024-02-14T02:55:51;4.17;;;2.63;;
18286;SDS011;9269;50.838;12.094;2024-02-14T02:58:22;3.47;;;2.43;;
18286;SDS011;9269;50.838;12.094;2024-02-14T03:00:51;3.60;;;2.23;;
18286;SDS011;9269;50.838;12.094;2024-02-14T03:03:23;2.57;;;2.17;;
18286;SDS011;9269;50.838;12.094;2024-02-14T03:05:56;2.37;;;2.10;;
18286;SDS011;9269;50.838;12.094;2024-02-14T03:08:28;2.10;;;2.00;;
18286;SDS011;9269;50.838;12.094;2024-02-14T03:10:57;3.00;;;2.00;;
18286;SDS011;9269;50.838;12.094;2024-02-14T03:13:29;4.03;;;2.10;;
18286;SDS011;9269;50.838;12.094;2024-02-14T03:15:59;3.20;;;2.20;;
18286;SDS011;9269;50.838;12.094;2024-02-14T03:18:28;3.90;;;2.20;;
18286;SDS011;9269;50.838;12.094;2024-02-14T03:20:57;3.87;;;2.30;;
18286;SDS011;9269;50.838;12.094;2024-02-14T03:23:26;2.23;;;2.13;;
18286;SDS011;9269;50.838;12.094;2024-02-14T03:25:56;2.63;;;2.10;;
18286;SDS011;9269;50.838;12.094;2024-02-14T03:28:26;3.23;;;2.00;;
18286;SDS011;9269;50.838;12.094;2024-02-14T03:30:56;2.10;;;1.90;;
18286;SDS011;9269;50.838;12.094;2024-02-14T03:33:25;2.60;;;2.40;;
18286;SDS011;9269;50.838;12.094;2024-02-14T03:35:53;2.87;;;2.20;;
18286;SDS011;9269;50.838;12.094;2024-02-14T03:38:25;3.97;;;2.40;;
18286;SDS011;9269;50.838;12.094;2024-02-14T03:40:57;2.00;;;1.77;;
18286;SDS011;9269;50.838;12.094;2024-02-14T03:43:25;2.50;;;2.10;;
18286;SDS011;9269;50.838;12.094;2024-02-14T03:45:55;2.23;;;1.93;;
18286;SDS011;9269;50.838;12.094;2024-02-14T03:48:25;2.50;;;2.03;;
18286;SDS011;9269;50.838;12.094;2024-02-14T03:50:54;2.17;;;1.97;;
18286;SDS011;9269;50.838;12.094;2024-02-14T03:53:25;2.10;;;1.90;;
18286;SDS011;9269;50.838;12.094;2024-02-14T03:55:54;2.93;;;2.10;;
18286;SDS011;9269;50.838;12.094;2024-02-14T03:58:24;4.27;;;2.03;;
18286;SDS011;9269;50.838;12.094;2024-02-14T04:00:53;2.70;;;1.90;;
18286;SDS011;9269;50.838;12.094;2024-02-14T04:03:23;2.23;;;1.70;;
18286;SDS011;9269;50.838;12.094;2024-02-14T04:05:53;2.13;;;1.90;;
18286;SDS011;9269;50.838;12.094;2024-02-14T04:08:23;2.00;;;1.80;;
18286;SDS011;9269;50.838;12.094;2024-02-14T04:10:53;2.80;;;1.87;;
18286;SDS011;9269;50.838;12.094;2024-02-14T04:13:25;2.50;;;1.73;;
18286;SDS011;9269;50.838;12.094;2024-02-14T04:15:54;2.70;;;1.83;;
18286;SDS011;9269;50.838;12.094;2024-02-14T04:18:23;4.20;;;1.83;;
18286;SDS011;9269;50.838;12.094;2024-02-14T04:20:54;2.83;;;1.90;;
18286;SDS011;9269;50.838;12.094;2024-02-14T04:23:22;2.23;;;1.80;;
18286;SDS011;9269;50.838;12.094;2024-02-14T04:25:52;2.57;;;2.03;;
18286;SDS011;9269;50.838;12.094;2024-02-14T04:28:20;3.20;;;2.00;;
18286;SDS011;9269;50.838;12.094;2024-02-14T04:30:51;2.13;;;1.90;;
18286;SDS011;9269;50.838;12.094;2024-02-14T04:33:21;1.97;;;1.77;;
18286;SDS011;9269;50.838;12.094;2024-02-14T04:35:51;3.97;;;1.97;;
18286;SDS011;9269;50.838;12.094;2024-02-14T04:38:20;2.03;;;1.70;;
18286;SDS011;9269;50.838;12.094;2024-02-14T04:40:50;2.13;;;1.80;;
18286;SDS011;9269;50.838;12.094;2024-02-14T04:43:20;3.33;;;1.97;;
18286;SDS011;9269;50.838;12.094;2024-02-14T04:45:51;1.90;;;1.70;;
18286;SDS011;9269;50.838;12.094;2024-02-14T04:48:19;2.70;;;2.00;;
18286;SDS011;9269;50.838;12.094;2024-02-14T04:50:49;2.40;;;2.00;;
18286;SDS011;9269;50.838;12.094;2024-02-14T04:53:20;1.87;;;1.63;;
18286;SDS011;9269;50.838;12.094;2024-02-14T04:55:49;3.03;;;1.90;;
18286;SDS011;9269;50.838;12.094;2024-02-14T04:58:18;1.70;;;1.60;;
18286;SDS011;9269;50.838;12.094;2024-02-14T05:00:47;4.07;;;2.47;;
18286;SDS011;9269;50.838;12.094;2024-02-14T05:03:17;3.20;;;1.93;;
18286;SDS011;9269;50.838;12.094;2024-02-14T05:05:45;2.93;;;2.00;;
18286;SDS011;9269;50.838;12.094;2024-02-14T05:08:14;3.00;;;1.90;;
18286;SDS011;9269;50.838;12.094;2024-02-14T05:10:44;3.13;;;2.27;;
18286;SDS011;9269;50.838;12.094;2024-02-14T05:13:12;3.00;;;1.73;;
18286;SDS011;9269;50.838;12.094;2024-02-14T05:15:43;2.80;;;2.10;;
18286;SDS011;9269;50.838;12.094;2024-02-14T05:18:14;3.50;;;1.87;;
18286;SDS011;9269;50.838;12.094;2024-02-14T05:20:46;2.40;;;2.20;;
18286;SDS011;9269;50.838;12.094;2024-02-14T05:23:14;2.43;;;2.13;;
18286;SDS011;9269;50.838;12.094;2024-02-14T05:25:44;3.40;;;2.00;;
18286;SDS011;9269;50.838;12.094;2024-02-14T05:28:14;3.30;;;2.43;;
18286;SDS011;9269;50.838;12.094;2024-02-14T05:30:46;3.83;;;2.13;;
18286;SDS011;9269;50.838;12.094;2024-02-14T05:33:15;1.77;;;1.67;;
18286;SDS011;9269;50.838;12.094;2024-02-14T05:35:47;3.10;;;1.93;;
18286;SDS011;9269;50.838;12.094;2024-02-14T05:38:16;4.47;;;2.40;;
18286;SDS011;9269;50.838;12.094;2024-02-14T05:40:46;3.53;;;1.90;;
18286;SDS011;9269;50.838;12.094;2024-02-14T05:43:15;2.57;;;2.00;;
18286;SDS011;9269;50.838;12.094;2024-02-14T05:45:46;2.10;;;1.90;;
18286;SDS011;9269;50.838;12.094;2024-02-14T05:48:15;2.67;;;2.13;;
18286;SDS011;9269;50.838;12.094;2024-02-14T05:50:47;1.97;;;1.83;;
18286;SDS011;9269;50.838;12.094;2024-02-14T05:53:16;2.80;;;1.90;;
18286;SDS011;9269;50.838;12.094;2024-02-14T05:55:45;2.67;;;2.00;;
18286;SDS011;9269;50.838;12.094;2024-02-14T05:58:14;2.07;;;1.90;;
18286;SDS011;9269;50.838;12.094;2024-02-14T06:00:43;3.33;;;2.20;;
18286;SDS011;9269;50.838;12.094;2024-02-14T06:03:12;2.20;;;2.00;;
18286;SDS011;9269;50.838;12.094;2024-02-14T06:05:41;3.60;;;2.03;;
18286;SDS011;9269;50.838;12.094;2024-02-14T06:08:14;4.60;;;2.30;;
18286;SDS011;9269;50.838;12.094;2024-02-14T06:10:43;2.50;;;2.10;;
18286;SDS011;9269;50.838;12.094;2024-02-14T06:13:11;2.80;;;2.40;;
18286;SDS011;9269;50.838;12.094;2024-02-14T06:15:40;2.57;;;1.60;;
18286;SDS011;9269;50.838;12.094;2024-02-14T06:18:09;2.87;;;2.47;;
18286;SDS011;9269;50.838;12.094;2024-02-14T06:20:39;2.20;;;1.73;;
18286;SDS011;9269;50.838;12.094;2024-02-14T06:23:08;2.70;;;2.20;;
18286;SDS011;9269;50.838;12.094;2024-02-14T06:25:39;1.97;;;1.77;;
18286;SDS011;9269;50.838;12.094;2024-02-14T06:28:09;2.53;;;1.90;;
18286;SDS011;9269;50.838;12.094;2024-02-14T06:30:38;4.73;;;2.17;;
18286;SDS011;9269;50.838;12.094;2024-02-14T06:33:06;3.30;;;2.10;;
18286;SDS011;9269;50.838;12.094;2024-02-14T06:35:34;2.17;;;1.70;;
18286;SDS011;9269;50.838;12.094;2024-02-14T06:38:04;3.27;;;2.00;;
18286;SDS011;9269;50.838;12.094;2024-02-14T06:40:34;3.13;;;2.00;;
18286;SDS011;9269;50.838;12.094;2024-02-14T06:43:05;4.80;;;1.90;;
18286;SDS011;9269;50.838;12.094;2024-02-14T06:45:34;2.13;;;1.90;;
18286;SDS011;9269;50.838;12.094;2024-02-14T06:48:02;3.60;;;2.13;;
18286;SDS011;9269;50.838;12.094;2024-02-14T06:50:32;2.90;;;1.97;;
18286;SDS011;9269;50.838;12.094;2024-02-14T06:53:00;3.57;;;2.43;;
18286;SDS011;9269;50.838;12.094;2024-02-14T06:55:31;3.07;;;2.57;;
18286;SDS011;9269;50.838;12.094;2024-02-14T06:58:01;3.97;;;2.67;;
18286;SDS011;9269;50.838;12.094;2024-02-14T07:00:33;2.33;;;2.13;;
18286;SDS011;9269;50.838;12.094;2024-02-14T07:03:02;3.60;;;2.30;;
18286;SDS011;9269;50.838;12.094;2024-02-14T07:05:33;2.13;;;1.70;;
18286;SDS011;9269;50.838;12.094;2024-02-14T07:08:02;2.83;;;1.93;;
18286;SDS011;9269;50.838;12.094;2024-02-14T07:10:32;2.37;;;1.60;;
18286;SDS011;9269;50.838;12.094;2024-02-14T07:13:02;3.50;;;2.10;;
18286;SDS011;9269;50.838;12.094;2024-02-14T07:15:31;2.27;;;2.03;;
18286;SDS011;9269;50.838;12.094;2024-02-14T07:18:02;3.73;;;2.03;;
18286;SDS011;9269;50.838;12.094;2024-02-14T07:20:32;3.37;;;2.23;;
18286;SDS011;9269;50.838;12.094;2024-02-14T07:23:02;4.00;;;1.93;;
18286;SDS011;9269;50.838;12.094;2024-02-14T07:25:32;3.57;;;2.20;;
18286;SDS011;9269;50.838;12.094;2024-02-14T07:28:03;3.77;;;1.90;;
18286;SDS011;9269;50.838;12.094;2024-02-14T07:30:35;2.50;;;2.30;;
18286;SDS011;9269;50.838;12.094;2024-02-14T07:33:06;2.70;;;2.10;;
18286;SDS011;9269;50.838;12.094;2024-02-14T07:35:37;3.10;;;2.10;;
18286;SDS011;9269;50.838;12.094;2024-02-14T07:38:11;2.50;;;1.77;;
18286;SDS011;9269;50.838;12.094;2024-02-14T07:40:40;4.03;;;1.80;;
18286;SDS011;9269;50.838;12.094;2024-02-14T07:43:14;2.13;;;1.70;;
18286;SDS011;9269;50.838;12.094;2024-02-14T07:45:45;2.30;;;2.10;;
18286;SDS011;9269;50.838;12.094;2024-02-14T07:48:15;3.33;;;2.17;;
18286;SDS011;9269;50.838;12.094;2024-02-14T07:50:45;5.27;;;2.43;;
18286;SDS011;9269;50.838;12.094;2024-02-14T07:53:14;3.03;;;2.23;;
18286;SDS011;9269;50.838;12.094;2024-02-14T07:55:42;4.93;;;2.27;;
18286;SDS011;9269;50.838;12.094;2024-02-14T07:58:11;4.50;;;1.97;;
18286;SDS011;9269;50.838;12.094;2024-02-14T08:00:41;3.87;;;2.20;;
18286;SDS011;9269;50.838;12.094;2024-02-14T08:03:12;5.47;;;2.57;;
18286;SDS011;9269;50.838;12.094;2024-02-14T08:05:42;4.83;;;2.30;;
18286;SDS011;9269;50.838;12.094;2024-02-14T08:08:11;2.97;;;1.80;;
18286;SDS011;9269;50.838;12.094;2024-02-14T08:10:41;4.17;;;1.83;;
18286;SDS011;9269;50.838;12.094;2024-02-14T08:13:10;3.37;;;2.03;;
18286;SDS011;9269;50.838;12.094;2024-02-14T08:15:44;4.50;;;2.43;;
18286;SDS011;9269;50.838;12.094;2024-02-14T08:18:14;4.80;;;2.23;;
18286;SDS011;9269;50.838;12.094;2024-02-14T08:20:43;4.13;;;2.20;;
18286;SDS011;9269;50.838;12.094;2024-02-14T08:23:12;5.17;;;2.30;;
18286;SDS011;9269;50.838;12.094;2024-02-14T08:25:41;4.30;;;2.70;;
18286;SDS011;9269;50.838;12.094;2024-02-14T08:28:09;4.40;;;2.77;;
18286;SDS011;9269;50.838;12.094;2024-02-14T08:33:08;7.07;;;3.70;;
18286;SDS011;9269;50.838;12.094;2024-02-14T08:35:39;9.37;;;4.77;;
18286;SDS011;9269;50.838;12.094;2024-02-14T08:38:11;6.80;;;3.47;;
18286;SDS011;9269;50.838;12.094;2024-02-14T08:40:40;8.60;;;3.57;;
18286;SDS011;9269;50.838;12.094;2024-02-14T08:43:09;5.70;;;3.40;;
18286;SDS011;9269;50.838;12.094;2024-02-14T08:45:39;5.00;;;2.97;;
18286;SDS011;9269;50.838;12.094;2024-02-14T08:48:08;11.67;;;4.80;;
18286;SDS011;9269;50.838;12.094;2024-02-14T08:50:38;10.33;;;4.33;;
18286;SDS011;9269;50.838;12.094;2024-02-14T08:53:07;6.87;;;3.37;;
18286;SDS011;9269;50.838;12.094;2024-02-14T08:55:36;8.13;;;3.87;;
18286;SDS011;9269;50.838;12.094;2024-02-14T08:58:06;4.83;;;2.50;;
18286;SDS011;9269;50.838;12.094;2024-02-14T09:00:37;6.53;;;3.03;;
18286;SDS011;9269;50.838;12.094;2024-02-14T09:03:09;2.57;;;2.17;;
18286;SDS011;9269;50.838;12.094;2024-02-14T09:05:39;4.97;;;3.10;;
18286;SDS011;9269;50.838;12.094;2024-02-14T09:08:07;4.33;;;3.13;;
18286;SDS011;9269;50.838;12.094;2024-02-14T09:10:37;7.90;;;4.37;;
18286;SDS011;9269;50.838;12.094;2024-02-14T09:13:07;7.83;;;4.20;;
18286;SDS011;9269;50.838;12.094;2024-02-14T09:15:38;6.07;;;3.30;;
18286;SDS011;9269;50.838;12.094;2024-02-14T09:18:06;6.80;;;3.40;;
18286;SDS011;9269;50.838;12.094;2024-02-14T09:20:38;7.10;;;3.47;;
18286;SDS011;9269;50.838;12.094;2024-02-14T09:23:07;5.70;;;3.17;;
18286;SDS011;9269;50.838;12.094;2024-02-14T09:25:36;5.00;;;2.90;;
18286;SDS011;9269;50.838;12.094;2024-02-14T09:28:05;3.37;;;2.50;;
18286;SDS011;9269;50.838;12.094;2024-02-14T09:30:37;3.57;;;2.30;;
18286;SDS011;9269;50.838;12.094;2024-02-14T09:33:06;4.03;;;2.70;;
18286;SDS011;9269;50.838;12.094;2024-02-14T09:35:38;3.90;;;2.30;;
18286;SDS011;9269;50.838;12.094;2024-02-14T09:38:12;3.07;;;2.20;;
18286;SDS011;9269;50.838;12.094;2024-02-14T09:40:42;2.60;;;2.30;;
18286;SDS011;9269;50.838;12.094;2024-02-14T09:43:14;4.43;;;2.30;;
18286;SDS011;9269;50.838;12.094;2024-02-14T09:45:52;2.53;;;2.10;;
18286;SDS011;9269;50.838;12.094;2024-02-14T09:48:23;2.87;;;2.20;;
18286;SDS011;9269;50.838;12.094;2024-02-14T09:50:55;2.50;;;2.27;;
18286;SDS011;9269;50.838;12.094;2024-02-14T09:53:25;2.50;;;2.10;;
18286;SDS011;9269;50.838;12.094;2024-02-14T09:55:56;2.50;;;2.23;;
18286;SDS011;9269;50.838;12.094;2024-02-14T09:58:28;3.97;;;2.00;;
18286;SDS011;9269;50.838;12.094;2024-02-14T10:00:57;2.50;;;2.10;;
18286;SDS011;9269;50.838;12.094;2024-02-14T10:03:25;2.23;;;1.90;;
18286;SDS011;9269;50.838;12.094;2024-02-14T10:05:55;4.30;;;2.00;;
18286;SDS011;9269;50.838;12.094;2024-02-14T10:08:24;4.27;;;2.50;;
18286;SDS011;9269;50.838;12.094;2024-02-14T10:10:56;3.03;;;2.20;;
18286;SDS011;9269;50.838;12.094;2024-02-14T10:13:26;1.60;;;1.50;;
18286;SDS011;9269;50.838;12.094;2024-02-14T10:15:55;1.73;;;1.63;;
18286;SDS011;9269;50.838;12.094;2024-02-14T10:18:24;2.00;;;1.80;;
18286;SDS011;9269;50.838;12.094;2024-02-14T10:20:56;1.97;;;1.80;;
18286;SDS011;9269;50.838;12.094;2024-02-14T10:23:26;1.63;;;1.53;;
18286;SDS011;9269;50.838;12.094;2024-02-14T10:25:58;2.90;;;1.77;;
18286;SDS011;9269;50.838;12.094;2024-02-14T10:28:28;1.50;;;1.40;;
18286;SDS011;9269;50.838;12.094;2024-02-14T10:31:09;2.97;;;1.90;;
18286;SDS011;9269;50.838;12.094;2024-02-14T10:33:38;1.90;;;1.80;;
18286;SDS011;9269;50.838;12.094;2024-02-14T10:36:08;1.70;;;1.60;;
18286;SDS011;9269;50.838;12.094;2024-02-14T10:38:39;2.30;;;2.10;;
18286;SDS011;9269;50.838;12.094;2024-02-14T10:41:09;2.27;;;1.90;;
18286;SDS011;9269;50.838;12.094;2024-02-14T10:43:40;2.40;;;2.10;;
18286;SDS011;9269;50.838;12.094;2024-02-14T10:46:12;2.33;;;2.13;;
18286;SDS011;9269;50.838;12.094;2024-02-14T10:48:47;3.60;;;2.20;;
18286;SDS011;9269;50.838;12.094;2024-02-14T10:51:21;2.23;;;2.00;;
18286;SDS011;9269;50.838;12.094;2024-02-14T10:53:50;3.33;;;1.70;;
18286;SDS011;9269;50.838;12.094;2024-02-14T10:56:22;3.43;;;2.10;;
18286;SDS011;9269;50.838;12.094;2024-02-14T10:58:56;2.80;;;2.50;;
18286;SDS011;9269;50.838;12.094;2024-02-14T11:01:26;4.03;;;2.00;;
18286;SDS011;9269;50.838;12.094;2024-02-14T11:03:59;2.57;;;2.13;;
18286;SDS011;9269;50.838;12.094;2024-02-14T11:06:29;4.40;;;2.17;;
18286;SDS011;9269;50.838;12.094;2024-02-14T11:08:58;2.47;;;2.00;;
18286;SDS011;9269;50.838;12.094;2024-02-14T11:11:33;2.93;;;2.10;;
18286;SDS011;9269;50.838;12.094;2024-02-14T11:14:02;4.10;;;2.60;;
18286;SDS011;9269;50.838;12.094;2024-02-14T11:16:31;2.77;;;2.10;;
18286;SDS011;9269;50.838;12.094;2024-02-14T11:19:07;2.87;;;2.17;;
18286;SDS011;9269;50.838;12.094;2024-02-14T11:21:40;2.43;;;2.10;;
18286;SDS011;9269;50.838;12.094;2024-02-14T11:24:13;3.80;;;2.30;;
18286;SDS011;9269;50.838;12.094;2024-02-14T11:26:46;2.47;;;2.20;;
18286;SDS011;9269;50.838;12.094;2024-02-14T11:29:17;3.80;;;2.50;;
18286;SDS011;9269;50.838;12.094;2024-02-14T11:31:57;2.40;;;2.13;;
18286;SDS011;9269;50.838;12.094;2024-02-14T11:34:26;2.73;;;2.27;;
18286;SDS011;9269;50.838;12.094;2024-02-14T11:36:56;2.80;;;2.13;;
18286;SDS011;9269;50.838;12.094;2024-02-14T11:39:26;2.57;;;1.90;;
18286;SDS011;9269;50.838;12.094;2024-02-14T11:41:56;3.00;;;2.20;;
18286;SDS011;9269;50.838;12.094;2024-02-14T11:44:26;2.30;;;2.10;;
18286;SDS011;9269;50.838;12.094;2024-02-14T11:46:57;10.40;;;6.10;;
18286;SDS011;9269;50.838;12.094;2024-02-14T11:49:25;16.97;;;13.07;;
18286;SDS011;9269;50.838;12.094;2024-02-14T11:51:57;7.70;;;5.80;;
18286;SDS011;9269;50.838;12.094;2024-02-14T11:54:27;6.00;;;4.87;;
18286;SDS011;9269;50.838;12.094;2024-02-14T11:56:56;4.67;;;3.90;;
18286;SDS011;9269;50.838;12.094;2024-02-14T11:59:25;5.67;;;3.43;;
18286;SDS011;9269;50.838;12.094;2024-02-14T12:01:54;4.83;;;3.53;;
18286;SDS011;9269;50.838;12.094;2024-02-14T12:04:26;5.23;;;3.77;;
18286;SDS011;9269;50.838;12.094;2024-02-14T12:06:55;3.23;;;2.90;;
18286;SDS011;9269;50.838;12.094;2024-02-14T12:09:26;3.23;;;2.60;;
18286;SDS011;9269;50.838;12.094;2024-02-14T12:11:57;4.70;;;2.70;;
18286;SDS011;9269;50.838;12.094;2024-02-14T12:14:28;2.97;;;2.30;;
18286;SDS011;9269;50.838;12.094;2024-02-14T12:16:59;3.43;;;2.13;;
18286;SDS011;9269;50.838;12.094;2024-02-14T12:19:29;5.63;;;4.10;;
18286;SDS011;9269;50.838;12.094;2024-02-14T12:22:08;6.60;;;4.07;;
18286;SDS011;9269;50.838;12.094;2024-02-14T12:24:39;3.40;;;3.10;;
18286;SDS011;9269;50.838;12.094;2024-02-14T12:27:09;3.23;;;2.73;;
18286;SDS011;9269;50.838;12.094;2024-02-14T12:29:38;3.13;;;2.70;;
18286;SDS011;9269;50.838;12.094;2024-02-14T12:32:07;2.47;;;2.27;;
18286;SDS011;9269;50.838;12.094;2024-02-14T12:34:37;2.33;;;2.13;;
18286;SDS011;9269;50.838;12.094;2024-02-14T12:37:08;3.57;;;3.00;;
18286;SDS011;9269;50.838;12.094;2024-02-14T12:39:37;3.80;;;2.70;;
18286;SDS011;9269;50.838;12.094;2024-02-14T12:42:07;3.70;;;3.20;;
18286;SDS011;9269;50.838;12.094;2024-02-14T12:47:19;3.30;;;2.70;;
18286;SDS011;9269;50.838;12.094;2024-02-14T12:49:49;4.07;;;2.97;;
18286;SDS011;9269;50.838;12.094;2024-02-14T12:52:20;2.80;;;2.60;;
18286;SDS011;9269;50.838;12.094;2024-02-14T12:54:50;3.37;;;2.47;;
18286;SDS011;9269;50.838;12.094;2024-02-14T12:57:20;3.53;;;2.17;;
18286;SDS011;9269;50.838;12.094;2024-02-14T12:59:49;3.10;;;2.80;;
18286;SDS011;9269;50.838;12.094;2024-02-14T13:02:18;3.00;;;2.30;;
18286;SDS011;9269;50.838;12.094;2024-02-14T13:04:49;2.57;;;2.37;;
18286;SDS011;9269;50.838;12.094;2024-02-14T13:07:17;2.67;;;2.30;;
18286;SDS011;9269;50.838;12.094;2024-02-14T13:09:48;2.40;;;2.20;;
18286;SDS011;9269;50.838;12.094;2024-02-14T13:12:18;2.83;;;2.60;;
18286;SDS011;9269;50.838;12.094;2024-02-14T13:14:50;4.03;;;2.63;;
18286;SDS011;9269;50.838;12.094;2024-02-14T13:17:19;3.83;;;3.37;;
18286;SDS011;9269;50.838;12.094;2024-02-14T13:19:48;3.63;;;3.20;;
18286;SDS011;9269;50.838;12.094;2024-02-14T13:22:17;4.23;;;2.97;;
18286;SDS011;9269;50.838;12.094;2024-02-14T13:24:46;3.80;;;3.43;;
18286;SDS011;9269;50.838;12.094;2024-02-14T13:27:15;4.10;;;3.63;;
18286;SDS011;9269;50.838;12.094;2024-02-14T13:29:44;6.37;;;4.50;;
18286;SDS011;9269;50.838;12.094;2024-02-14T13:32:15;3.87;;;3.20;;
18286;SDS011;9269;50.838;12.094;2024-02-14T13:34:45;3.47;;;3.17;;
18286;SDS011;9269;50.838;12.094;2024-02-14T13:37:15;3.27;;;2.97;;
18286;SDS011;9269;50.838;12.094;2024-02-14T13:39:43;2.73;;;2.47;;
18286;SDS011;9269;50.838;12.094;2024-02-14T13:42:14;2.87;;;2.53;;
18286;SDS011;9269;50.838;12.094;2024-02-14T13:44:44;2.80;;;2.30;;
18286;SDS011;9269;50.838;12.094;2024-02-14T13:47:13;2.10;;;2.00;;
18286;SDS011;9269;50.838;12.094;2024-02-14T13:49:46;2.50;;;2.30;;
18286;SDS011;9269;50.838;12.094;2024-02-14T13:52:16;2.20;;;2.00;;
18286;SDS011;9269;50.838;12.094;2024-02-14T13:54:46;2.50;;;2.00;;
18286;SDS011;9269;50.838;12.094;2024-02-14T13:57:16;2.37;;;2.17;;
18286;SDS011;9269;50.838;12.094;2024-02-14T13:59:46;2.77;;;2.33;;
18286;SDS011;9269;50.838;12.094;2024-02-14T14:02:18;2.33;;;1.90;;
18286;SDS011;9269;50.838;12.094;2024-02-14T14:04:46;1.90;;;1.73;;
18286;SDS011;9269;50.838;12.094;2024-02-14T14:07:16;2.40;;;2.20;;
18286;SDS011;9269;50.838;12.094;2024-02-14T14:09:46;3.17;;;2.40;;
18286;SDS011;9269;50.838;12.094;2024-02-14T14:12:18;3.43;;;2.43;;
18286;SDS011;9269;50.838;12.094;2024-02-14T14:14:48;2.83;;;2.20;;
18286;SDS011;9269;50.838;12.094;2024-02-14T14:17:17;2.33;;;2.10;;
18286;SDS011;9269;50.838;12.094;2024-02-14T14:19:47;2.73;;;2.53;;
18286;SDS011;9269;50.838;12.094;2024-02-14T14:22:17;3.63;;;2.50;;
18286;SDS011;9269;50.838;12.094;2024-02-14T14:24:46;3.17;;;2.80;;
18286;SDS011;9269;50.838;12.094;2024-02-14T14:27:15;3.50;;;3.17;;
18286;SDS011;9269;50.838;12.094;2024-02-14T14:29:48;2.93;;;2.63;;
18286;SDS011;9269;50.838;12.094;2024-02-14T14:32:17;4.40;;;3.47;;
18286;SDS011;9269;50.838;12.094;2024-02-14T14:34:48;2.53;;;2.33;;
18286;SDS011;9269;50.838;12.094;2024-02-14T14:37:17;3.30;;;2.77;;
18286;SDS011;9269;50.838;12.094;2024-02-14T14:39:48;3.30;;;3.00;;
18286;SDS011;9269;50.838;12.094;2024-02-14T14:42:18;3.87;;;2.93;;
18286;SDS011;9269;50.838;12.094;2024-02-14T14:44:48;2.40;;;2.20;;
18286;SDS011;9269;50.838;12.094;2024-02-14T14:47:16;2.83;;;2.63;;
18286;SDS011;9269;50.838;12.094;2024-02-14T14:49:46;2.60;;;2.40;;
18286;SDS011;9269;50.838;12.094;2024-02-14T14:52:15;2.77;;;2.57;;
18286;SDS011;9269;50.838;12.094;2024-02-14T14:54:45;3.43;;;3.17;;
18286;SDS011;9269;50.838;12.094;2024-02-14T14:57:14;3.53;;;3.23;;
18286;SDS011;9269;50.838;12.094;2024-02-14T14:59:46;2.63;;;2.43;;
18286;SDS011;9269;50.838;12.094;2024-02-14T15:02:16;3.07;;;2.37;;
18286;SDS011;9269;50.838;12.094;2024-02-14T15:04:45;2.50;;;2.30;;
18286;SDS011;9269;50.838;12.094;2024-02-14T15:07:14;5.47;;;3.67;;
18286;SDS011;9269;50.838;12.094;2024-02-14T15:09:44;4.87;;;3.93;;
18286;SDS011;9269;50.838;12.094;2024-02-14T15:12:13;5.60;;;4.23;;
18286;SDS011;9269;50.838;12.094;2024-02-14T15:14:42;7.33;;;5.10;;
18286;SDS011;9269;50.838;12.094;2024-02-14T15:17:13;5.73;;;4.33;;